Alton Bay, New Hampshire
Current Conditions -  °F | °C
As of 12:15 AM on Thursday 27 Nov 2014 (Local Time) from KLCI Reporting Station
NA  
Wind Chill: 32°   Ceiling: NA
Heat Index: 32°   Visibility: 1.7mi
Dew Point: 30°   Wind: 0mph
Humidity: 93%   Direction: NA
Pressure: 29.73"   Gusts: NA
Location:  43.47°N, 71.23°W
Report Text: KLCI 270515Z AUTO 00000KT 1 3/4SM 00/M01 A2973 RMK AO1
Loading
Personal Weather Stations






























Interactive Weather Map New forecast layout! Learn more

10-Day Weather Forecast

Advertisements
Track Severe Weather on mobile